createdAt,value
2018-09-06T00:01:11.626Z,77.10
2018-09-06T00:03:40.122Z,77.60
2018-09-06T00:06:08.576Z,77.60
2018-09-06T00:08:37.060Z,78.10
2018-09-06T00:11:05.459Z,78.00
2018-09-06T00:13:33.846Z,78.50
2018-09-06T00:16:02.246Z,77.90
2018-09-06T00:18:30.631Z,77.90
2018-09-06T00:20:59.062Z,78.30
2018-09-06T00:23:27.448Z,78.30
2018-09-06T00:25:55.925Z,78.10
2018-09-06T00:28:24.384Z,78.20
2018-09-06T00:30:52.761Z,78.40
2018-09-06T00:33:21.116Z,79.20
2018-09-06T00:35:49.508Z,79.60
2018-09-06T00:38:17.909Z,79.50
2018-09-06T00:40:46.343Z,80.00
2018-09-06T00:43:14.744Z,79.50
2018-09-06T00:45:43.192Z,80.40
2018-09-06T00:48:11.661Z,80.50
2018-09-06T00:50:40.772Z,80.80
2018-09-06T00:53:09.344Z,80.90
2018-09-06T00:55:37.783Z,81.30
2018-09-06T00:58:06.638Z,80.80
2018-09-06T01:00:35.045Z,81.10
2018-09-06T01:03:03.475Z,80.70
2018-09-06T01:05:31.890Z,80.90
2018-09-06T01:08:00.503Z,80.80
2018-09-06T01:10:29.069Z,81.50
2018-09-06T01:12:57.487Z,81.00
2018-09-06T01:15:25.912Z,81.20
2018-09-06T01:17:54.321Z,80.70
2018-09-06T01:20:22.771Z,80.80
2018-09-06T01:22:51.205Z,80.50
2018-09-06T01:25:19.609Z,80.10
2018-09-06T01:27:48.070Z,79.70
2018-09-06T01:30:16.540Z,80.00
2018-09-06T01:32:44.998Z,80.30
2018-09-06T01:35:13.458Z,80.10
2018-09-06T01:37:41.838Z,79.70
2018-09-06T01:40:10.363Z,79.60
2018-09-06T01:42:38.749Z,80.50
2018-09-06T01:45:07.128Z,80.20
2018-09-06T01:47:35.525Z,79.70
2018-09-06T01:50:03.986Z,79.50
2018-09-06T01:52:32.435Z,80.10
2018-09-06T01:55:00.800Z,80.20
2018-09-06T01:57:29.261Z,79.80
2018-09-06T01:59:57.648Z,79.40
2018-09-06T02:02:26.634Z,79.40
2018-09-06T02:04:55.231Z,79.20
2018-09-06T02:07:23.876Z,79.30
2018-09-06T02:09:52.310Z,79.30
2018-09-06T02:12:20.847Z,79.30
2018-09-06T02:14:49.247Z,79.00
2018-09-06T02:17:17.701Z,79.20
2018-09-06T02:19:46.203Z,79.00
2018-09-06T02:22:14.663Z,79.00
2018-09-06T02:24:43.243Z,78.90
2018-09-06T02:27:11.645Z,78.70
2018-09-06T02:29:40.094Z,78.70
2018-09-06T02:32:08.610Z,79.70
2018-09-06T02:34:37.159Z,79.30
2018-09-06T02:37:05.742Z,78.90
2018-09-06T02:39:34.374Z,79.30
2018-09-06T02:42:02.850Z,79.40
2018-09-06T02:44:31.272Z,79.50
2018-09-06T02:46:59.771Z,79.40
2018-09-06T02:49:33.590Z,79.90
2018-09-06T02:52:02.041Z,79.60
2018-09-06T02:54:30.404Z,79.60
2018-09-06T02:56:59.463Z,79.70
2018-09-06T02:59:27.885Z,80.00
2018-09-06T03:01:56.305Z,80.20
2018-09-06T03:04:24.815Z,80.40
2018-09-06T03:06:53.277Z,80.20
2018-09-06T03:09:22.596Z,79.60
2018-09-06T03:11:54.850Z,79.30
2018-09-06T03:14:24.919Z,79.30
2018-09-06T03:16:53.408Z,79.40
2018-09-06T03:19:21.830Z,79.30
2018-09-06T03:21:50.314Z,79.10
2018-09-06T03:24:18.973Z,79.40
2018-09-06T03:26:47.430Z,79.40
2018-09-06T03:29:15.816Z,79.70
2018-09-06T03:31:44.197Z,79.80
2018-09-06T03:34:12.641Z,80.10
2018-09-06T03:36:41.057Z,79.80
2018-09-06T03:39:10.111Z,79.60
2018-09-06T03:41:38.747Z,79.70
2018-09-06T03:44:07.233Z,79.40
2018-09-06T03:46:35.757Z,79.50
2018-09-06T03:49:04.177Z,79.30
2018-09-06T03:51:32.593Z,79.60
2018-09-06T03:54:01.049Z,80.40
2018-09-06T03:56:29.448Z,80.40
2018-09-06T03:58:57.836Z,80.40
2018-09-06T04:01:26.278Z,80.30
2018-09-06T04:03:54.745Z,80.10
2018-09-06T04:06:23.174Z,80.50
2018-09-06T04:08:51.661Z,80.20
2018-09-06T04:11:20.057Z,80.30
2018-09-06T04:13:48.547Z,80.60
2018-09-06T04:16:16.996Z,80.70
2018-09-06T04:18:45.387Z,80.90
2018-09-06T04:21:13.812Z,81.60
2018-09-06T04:23:42.278Z,81.00
2018-09-06T04:26:10.635Z,81.10
2018-09-06T04:28:39.131Z,81.70
2018-09-06T04:31:07.623Z,81.50
2018-09-06T04:33:36.041Z,81.70
2018-09-06T04:36:04.487Z,81.60
2018-09-06T04:38:32.940Z,81.80
2018-09-06T04:41:01.339Z,82.00
2018-09-06T04:43:30.053Z,81.70
2018-09-06T04:45:58.441Z,81.90
2018-09-06T04:48:26.854Z,82.00
2018-09-06T04:50:55.237Z,81.80
2018-09-06T04:53:23.631Z,81.50
2018-09-06T04:55:52.013Z,81.50
2018-09-06T04:58:20.517Z,81.10
2018-09-06T05:00:48.923Z,80.60
2018-09-06T05:03:17.309Z,81.20
2018-09-06T05:05:45.732Z,82.10
2018-09-06T05:08:14.759Z,82.90
2018-09-06T05:10:43.395Z,83.80
2018-09-06T05:13:11.844Z,84.30
2018-09-06T05:15:40.328Z,84.80
2018-09-06T05:18:08.785Z,85.80
2018-09-06T05:20:37.320Z,86.50
2018-09-06T05:23:06.030Z,86.90
2018-09-06T05:25:34.592Z,87.10
2018-09-06T05:28:02.947Z,87.20
2018-09-06T05:30:31.475Z,87.30
2018-09-06T05:32:59.910Z,87.50
2018-09-06T05:35:28.310Z,87.70
2018-09-06T05:37:56.822Z,87.50
2018-09-06T05:40:25.247Z,87.20
2018-09-06T05:42:53.653Z,87.10
2018-09-06T05:45:22.129Z,86.80
2018-09-06T05:47:56.019Z,86.70
2018-09-06T05:50:24.396Z,86.50
2018-09-06T05:52:52.827Z,86.80
2018-09-06T05:55:21.508Z,86.50
2018-09-06T05:57:49.888Z,86.30
2018-09-06T06:00:23.862Z,86.80
2018-09-06T06:02:52.995Z,86.50
2018-09-06T06:05:21.429Z,86.80
2018-09-06T06:08:01.333Z,86.50
2018-09-06T06:10:29.741Z,86.10
2018-09-06T06:12:58.172Z,85.60
2018-09-06T06:15:26.681Z,85.00
2018-09-06T06:17:55.145Z,84.90
2018-09-06T06:20:23.664Z,84.40
2018-09-06T06:22:52.145Z,84.70
2018-09-06T06:25:20.735Z,84.80
2018-09-06T06:27:49.115Z,84.60
2018-09-06T06:30:17.512Z,84.70
2018-09-06T06:32:46.298Z,84.60
2018-09-06T06:35:14.905Z,84.90
2018-09-06T06:37:43.364Z,85.20
2018-09-06T06:40:11.775Z,85.50
2018-09-06T06:42:40.229Z,85.50
2018-09-06T06:45:08.773Z,85.40
2018-09-06T06:47:37.161Z,85.50
2018-09-06T06:50:05.618Z,85.40
2018-09-06T06:52:34.073Z,85.20
2018-09-06T06:55:02.483Z,84.70
2018-09-06T06:57:30.888Z,84.50
2018-09-06T06:59:59.402Z,84.50
2018-09-06T07:02:27.803Z,84.00
2018-09-06T07:04:56.649Z,83.60
2018-09-06T07:07:25.095Z,83.00
2018-09-06T07:09:53.573Z,82.00
2018-09-06T07:12:21.986Z,81.50
2018-09-06T07:14:57.204Z,80.60
2018-09-06T07:17:25.570Z,80.00
2018-09-06T07:19:54.028Z,79.00
2018-09-06T07:22:29.023Z,78.50
2018-09-06T07:24:57.412Z,77.70
2018-09-06T07:27:25.949Z,77.40
2018-09-06T07:29:54.395Z,77.30
2018-09-06T07:32:22.825Z,75.90
2018-09-06T07:34:51.299Z,75.40
2018-09-06T07:37:19.699Z,75.00
2018-09-06T07:39:48.150Z,74.30
2018-09-06T07:42:16.540Z,73.90
2018-09-06T07:44:44.973Z,73.20
2018-09-06T07:47:13.371Z,72.80
2018-09-06T07:49:41.726Z,72.80
2018-09-06T07:52:10.186Z,72.10
2018-09-06T07:54:38.530Z,71.40
2018-09-06T07:57:06.938Z,70.80
2018-09-06T07:59:35.329Z,70.60
2018-09-06T08:02:03.786Z,70.20
2018-09-06T08:04:32.199Z,69.90
2018-09-06T08:07:00.554Z,69.20
2018-09-06T08:09:29.025Z,68.60
2018-09-06T08:11:57.497Z,67.90
2018-09-06T08:14:25.858Z,68.10
2018-09-06T08:16:54.259Z,68.10
2018-09-06T08:19:22.611Z,67.50
2018-09-06T08:21:51.028Z,66.90
2018-09-06T08:24:19.609Z,66.50
2018-09-06T08:26:48.033Z,65.70
2018-09-06T08:29:16.368Z,64.50
2018-09-06T08:31:44.775Z,64.20
2018-09-06T08:34:13.153Z,63.80
2018-09-06T08:36:41.593Z,63.80
2018-09-06T08:39:10.768Z,62.60
2018-09-06T08:41:40.022Z,61.60
2018-09-06T08:44:08.471Z,61.00
2018-09-06T08:46:37.399Z,60.20
2018-09-06T08:49:05.870Z,60.70
2018-09-06T08:51:34.260Z,60.00
2018-09-06T08:54:02.935Z,59.90
2018-09-06T08:56:31.368Z,59.30
2018-09-06T08:58:59.753Z,57.80
2018-09-06T09:01:33.645Z,57.50
2018-09-06T09:04:02.094Z,56.90
2018-09-06T09:06:37.698Z,56.70
2018-09-06T09:09:10.832Z,56.40
2018-09-06T09:11:39.664Z,56.20
2018-09-06T09:14:08.115Z,55.70
2018-09-06T09:16:36.881Z,55.80
2018-09-06T09:19:05.801Z,54.50
2018-09-06T09:21:34.458Z,54.60
2018-09-06T09:24:03.616Z,54.30
2018-09-06T09:26:32.048Z,54.70
2018-09-06T09:29:00.467Z,54.90
2018-09-06T09:31:28.901Z,54.40
2018-09-06T09:33:57.346Z,53.40
2018-09-06T09:36:25.787Z,52.20
2018-09-06T09:38:54.216Z,51.70
2018-09-06T09:41:22.674Z,51.20
2018-09-06T09:43:51.086Z,51.50
2018-09-06T09:48:47.143Z,50.40
2018-09-06T09:51:15.537Z,49.70
2018-09-06T09:53:43.903Z,49.90
2018-09-06T09:56:12.278Z,49.60
2018-09-06T09:58:40.720Z,49.30
2018-09-06T10:01:09.139Z,49.20
2018-09-06T10:03:43.000Z,49.30
2018-09-06T10:06:21.593Z,48.80
2018-09-06T10:08:55.983Z,48.70
2018-09-06T10:11:24.785Z,48.30
2018-09-06T10:13:53.189Z,48.10
2018-09-06T10:16:21.538Z,48.30
2018-09-06T10:18:49.918Z,47.10
2018-09-06T10:21:18.419Z,47.10
2018-09-06T10:23:46.774Z,47.00
2018-09-06T10:26:15.163Z,46.00
2018-09-06T10:28:43.556Z,43.50
2018-09-06T10:31:11.948Z,44.80
2018-09-06T10:33:40.351Z,43.60
2018-09-06T10:36:08.724Z,42.90
2018-09-06T10:38:37.155Z,44.20
2018-09-06T10:41:05.861Z,45.10
2018-09-06T10:43:34.219Z,45.10
2018-09-06T10:46:02.684Z,45.10
2018-09-06T10:48:31.081Z,44.80
2018-09-06T10:50:59.467Z,44.20
2018-09-06T10:53:27.924Z,44.30
2018-09-06T10:55:56.383Z,44.20
2018-09-06T10:58:24.888Z,44.70
2018-09-06T11:00:58.560Z,44.10
2018-09-06T11:03:27.024Z,44.00
2018-09-06T11:05:55.444Z,44.10
2018-09-06T11:08:23.906Z,44.30
2018-09-06T11:10:52.419Z,43.50
2018-09-06T11:13:20.850Z,43.40
2018-09-06T11:15:49.195Z,42.30
2018-09-06T11:18:17.682Z,41.40
2018-09-06T11:20:46.113Z,40.40
2018-09-06T11:23:14.492Z,42.40
2018-09-06T11:25:42.857Z,43.20
2018-09-06T11:28:11.344Z,43.40
2018-09-06T11:30:39.737Z,44.30
2018-09-06T11:33:08.129Z,44.80
2018-09-06T11:35:36.532Z,44.50
2018-09-06T11:38:04.998Z,43.90
2018-09-06T11:40:33.576Z,43.00
2018-09-06T11:43:02.121Z,42.50
2018-09-06T11:45:30.514Z,42.90
2018-09-06T11:47:58.972Z,42.70
2018-09-06T11:50:27.469Z,43.70
2018-09-06T11:52:55.982Z,43.20
2018-09-06T11:55:24.413Z,42.20
2018-09-06T11:57:52.828Z,40.10
2018-09-06T12:00:21.527Z,39.10
2018-09-06T12:02:49.888Z,38.10
2018-09-06T12:05:18.349Z,38.00
2018-09-06T12:07:46.751Z,38.20
2018-09-06T12:10:15.179Z,38.60
2018-09-06T12:12:43.582Z,38.00
2018-09-06T12:15:11.976Z,36.60
2018-09-06T12:17:40.363Z,35.70
2018-09-06T12:20:09.618Z,35.10
2018-09-06T12:22:38.275Z,34.60
2018-09-06T12:25:06.896Z,34.30
2018-09-06T12:27:35.399Z,34.40
2018-09-06T12:30:03.873Z,34.80
2018-09-06T12:32:32.337Z,33.80
2018-09-06T12:35:00.717Z,32.90
2018-09-06T12:37:29.255Z,32.90
2018-09-06T12:39:57.626Z,32.70
2018-09-06T12:42:26.036Z,33.20
2018-09-06T12:44:54.626Z,33.90
2018-09-06T12:47:23.120Z,34.30
2018-09-06T12:49:51.543Z,34.60
2018-09-06T12:52:19.922Z,34.90
2018-09-06T12:54:48.330Z,33.60
2018-09-06T12:57:16.691Z,33.40
2018-09-06T12:59:45.090Z,33.30
2018-09-06T13:02:13.609Z,32.80
2018-09-06T13:04:41.992Z,33.20
2018-09-06T13:07:10.370Z,33.00
2018-09-06T13:09:38.834Z,32.20
2018-09-06T13:12:07.281Z,32.30
2018-09-06T13:14:35.787Z,32.60
2018-09-06T13:17:04.156Z,33.30
2018-09-06T13:19:32.651Z,33.50
2018-09-06T13:22:01.059Z,33.90
2018-09-06T13:24:29.773Z,34.80
2018-09-06T13:26:58.193Z,33.90
2018-09-06T13:29:26.615Z,33.70
2018-09-06T13:31:55.144Z,33.70
2018-09-06T13:34:23.518Z,33.60
2018-09-06T13:36:51.906Z,33.50
2018-09-06T13:39:20.379Z,33.30
2018-09-06T13:41:48.803Z,33.30
2018-09-06T13:44:17.151Z,33.30
2018-09-06T13:46:45.533Z,33.90
2018-09-06T13:49:13.921Z,34.60
2018-09-06T13:51:42.359Z,34.10
2018-09-06T13:54:10.755Z,34.00
2018-09-06T13:56:39.435Z,33.50
2018-09-06T13:59:07.993Z,32.90
2018-09-06T14:01:36.595Z,32.90
2018-09-06T14:04:04.991Z,32.20
2018-09-06T14:06:39.869Z,32.80
2018-09-06T14:09:08.384Z,32.50
2018-09-06T14:11:37.169Z,33.30
2018-09-06T14:14:05.677Z,33.60
2018-09-06T14:16:34.208Z,33.30
2018-09-06T14:19:02.690Z,33.10
2018-09-06T14:21:31.120Z,33.10
2018-09-06T14:23:59.568Z,33.40
2018-09-06T14:26:27.992Z,33.10
2018-09-06T14:28:56.505Z,33.10
2018-09-06T14:31:24.987Z,32.60
2018-09-06T14:33:53.435Z,32.90
2018-09-06T14:36:21.885Z,32.30
2018-09-06T14:38:50.272Z,32.60
2018-09-06T14:41:18.691Z,32.30
2018-09-06T14:43:47.054Z,32.60
2018-09-06T14:46:15.670Z,32.60
2018-09-06T14:48:44.110Z,32.40
2018-09-06T14:51:12.491Z,32.50
2018-09-06T14:53:40.927Z,32.60
2018-09-06T14:56:09.479Z,32.80
2018-09-06T14:58:38.171Z,33.20
2018-09-06T15:01:06.696Z,33.20
2018-09-06T15:03:35.077Z,32.70
2018-09-06T15:06:03.502Z,32.40
2018-09-06T15:08:31.869Z,33.40
2018-09-06T15:11:00.278Z,33.60
2018-09-06T15:13:28.676Z,33.90
2018-09-06T15:15:57.124Z,33.90
2018-09-06T15:18:25.576Z,33.50
2018-09-06T15:20:53.982Z,33.70
2018-09-06T15:23:22.694Z,34.20
2018-09-06T15:25:51.654Z,35.60
2018-09-06T15:28:20.049Z,35.20
2018-09-06T15:30:48.486Z,35.50
2018-09-06T15:33:16.885Z,36.00
2018-09-06T15:35:45.271Z,36.00
2018-09-06T15:38:13.741Z,35.70
2018-09-06T15:40:42.458Z,35.90
2018-09-06T15:43:10.885Z,37.00
2018-09-06T15:45:39.369Z,37.30
2018-09-06T15:48:07.814Z,37.20
2018-09-06T15:50:36.339Z,37.20
2018-09-06T15:53:04.715Z,36.50
2018-09-06T15:55:33.144Z,36.70
2018-09-06T15:58:01.582Z,37.00
2018-09-06T16:00:29.976Z,36.50
2018-09-06T16:02:58.350Z,36.70
2018-09-06T16:05:26.691Z,36.80
2018-09-06T16:07:55.144Z,36.70
2018-09-06T16:10:23.659Z,37.30
2018-09-06T16:12:52.073Z,38.30
2018-09-06T16:15:20.450Z,38.90
2018-09-06T16:17:48.839Z,39.90
2018-09-06T16:20:17.347Z,40.70
2018-09-06T16:22:46.365Z,41.20
2018-09-06T16:25:15.009Z,41.80
2018-09-06T16:27:43.413Z,42.10
2018-09-06T16:30:11.913Z,42.60
2018-09-06T16:32:40.355Z,43.10
2018-09-06T16:35:08.783Z,43.30
2018-09-06T16:37:37.187Z,43.50
2018-09-06T16:40:05.648Z,43.90
2018-09-06T16:42:34.075Z,44.20
2018-09-06T16:45:03.432Z,44.30
2018-09-06T16:47:31.810Z,44.60
2018-09-06T16:50:00.232Z,44.80
2018-09-06T16:52:28.642Z,45.00
2018-09-06T16:54:56.983Z,45.40
2018-09-06T16:57:25.403Z,45.10
2018-09-06T16:59:53.851Z,45.40
2018-09-06T17:02:22.327Z,45.50
2018-09-06T17:04:50.812Z,45.80
2018-09-06T17:07:19.223Z,45.90
2018-09-06T17:09:47.702Z,46.00
2018-09-06T17:12:16.094Z,46.30
2018-09-06T17:14:44.530Z,46.30
2018-09-06T17:17:12.943Z,46.80
2018-09-06T17:19:41.309Z,47.10
2018-09-06T17:22:09.787Z,47.30
2018-09-06T17:24:38.158Z,47.60
2018-09-06T17:27:06.692Z,47.90
2018-09-06T17:29:35.261Z,48.20
2018-09-06T17:32:03.725Z,48.50
2018-09-06T17:34:32.127Z,48.90
2018-09-06T17:37:00.552Z,49.30
2018-09-06T17:39:28.948Z,49.90
2018-09-06T17:41:57.356Z,50.30
2018-09-06T17:44:25.770Z,50.70
2018-09-06T17:46:54.224Z,50.90
2018-09-06T17:49:22.591Z,51.20
2018-09-06T17:51:51.100Z,51.50
2018-09-06T17:54:19.634Z,51.70
2018-09-06T17:56:48.259Z,52.00
2018-09-06T17:59:16.695Z,52.50
2018-09-06T18:01:45.156Z,52.50
2018-09-06T18:04:13.564Z,52.70
2018-09-06T18:06:41.941Z,53.00
2018-09-06T18:09:12.100Z,53.10
2018-09-06T18:11:41.081Z,53.40
2018-09-06T18:14:09.816Z,53.50
2018-09-06T18:16:38.307Z,53.60
2018-09-06T18:19:06.678Z,53.90
2018-09-06T18:21:35.108Z,54.10
2018-09-06T18:24:03.601Z,54.10
2018-09-06T18:26:32.011Z,54.30
2018-09-06T18:29:00.517Z,54.40
2018-09-06T18:31:28.960Z,54.50
2018-09-06T18:33:57.343Z,54.50
2018-09-06T18:36:25.711Z,54.60
2018-09-06T18:38:54.132Z,54.60
2018-09-06T18:41:22.878Z,54.70
2018-09-06T18:43:51.294Z,54.80
2018-09-06T18:46:19.848Z,55.10
2018-09-06T18:48:48.289Z,55.10
2018-09-06T18:51:16.737Z,55.50
2018-09-06T18:53:45.177Z,55.50
2018-09-06T18:56:13.780Z,56.00
2018-09-06T18:58:42.271Z,56.00
2018-09-06T19:01:17.436Z,55.70
2018-09-06T19:03:45.849Z,55.70
2018-09-06T19:06:14.310Z,55.90
2018-09-06T19:08:43.559Z,56.20
2018-09-06T19:11:11.961Z,56.10
2018-09-06T19:13:40.408Z,56.70
2018-09-06T19:16:08.855Z,56.00
2018-09-06T19:18:37.487Z,55.80
2018-09-06T19:21:06.683Z,55.90
2018-09-06T19:23:35.096Z,56.10
2018-09-06T19:26:03.515Z,56.30
2018-09-06T19:28:38.744Z,56.50
2018-09-06T19:31:07.232Z,56.30
2018-09-06T19:33:35.707Z,56.30
2018-09-06T19:36:04.144Z,56.20
2018-09-06T19:38:32.597Z,56.40
2018-09-06T19:41:01.007Z,57.10
2018-09-06T19:43:29.499Z,56.70
2018-09-06T19:45:58.016Z,56.80
2018-09-06T19:48:26.712Z,56.80
2018-09-06T19:50:55.186Z,56.60
2018-09-06T19:53:23.616Z,57.00
2018-09-06T19:55:52.118Z,57.10
2018-09-06T19:58:20.597Z,56.80
2018-09-06T20:00:48.997Z,57.50
2018-09-06T20:03:17.413Z,57.00
2018-09-06T20:05:45.855Z,56.90
2018-09-06T20:08:14.340Z,57.00
2018-09-06T20:10:42.750Z,57.00
2018-09-06T20:13:11.247Z,56.90
2018-09-06T20:15:40.770Z,56.80
2018-09-06T20:18:09.172Z,57.10
2018-09-06T20:20:37.563Z,57.00
2018-09-06T20:23:06.172Z,57.00
2018-09-06T20:25:34.599Z,57.10
2018-09-06T20:28:03.123Z,57.30
2018-09-06T20:30:31.504Z,57.50
2018-09-06T20:33:00.050Z,57.60
2018-09-06T20:35:28.588Z,57.70
2018-09-06T20:37:57.096Z,57.80
2018-09-06T20:40:25.542Z,57.90
2018-09-06T20:42:54.015Z,58.00
2018-09-06T20:45:22.563Z,58.10
2018-09-06T20:47:50.951Z,58.00
2018-09-06T20:50:19.384Z,58.00
2018-09-06T20:52:47.827Z,58.00
2018-09-06T20:55:16.204Z,58.10
2018-09-06T20:57:44.656Z,58.20
2018-09-06T21:00:13.426Z,58.20
2018-09-06T21:02:41.833Z,58.20
2018-09-06T21:05:10.413Z,58.30
2018-09-06T21:07:38.887Z,58.40
2018-09-06T21:10:07.379Z,58.30
2018-09-06T21:12:35.804Z,58.40
2018-09-06T21:15:04.244Z,58.40
2018-09-06T21:17:32.730Z,58.60
2018-09-06T21:20:01.162Z,58.90
2018-09-06T21:22:29.719Z,58.80
2018-09-06T21:24:58.125Z,58.90
2018-09-06T21:27:26.628Z,59.10
2018-09-06T21:29:55.065Z,59.30
2018-09-06T21:32:23.502Z,59.40
2018-09-06T21:34:51.902Z,59.50
2018-09-06T21:37:20.301Z,59.40
2018-09-06T21:39:48.748Z,59.50
2018-09-06T21:42:17.152Z,59.60
2018-09-06T21:44:45.574Z,59.90
2018-09-06T21:47:14.072Z,59.70
2018-09-06T21:49:42.406Z,59.90
2018-09-06T21:52:10.851Z,60.20
2018-09-06T21:54:39.215Z,60.20
2018-09-06T21:57:07.650Z,60.70
2018-09-06T21:59:36.091Z,60.50
2018-09-06T22:02:04.478Z,60.60
2018-09-06T22:04:32.851Z,60.90
2018-09-06T22:07:01.239Z,60.80
2018-09-06T22:09:29.667Z,61.00
2018-09-06T22:11:58.300Z,60.80
2018-09-06T22:14:26.651Z,60.90
2018-09-06T22:16:55.051Z,60.90
2018-09-06T22:19:23.609Z,60.90
2018-09-06T22:21:51.997Z,61.00
2018-09-06T22:24:20.345Z,61.10
2018-09-06T22:26:48.778Z,61.20
2018-09-06T22:29:17.139Z,61.30
2018-09-06T22:31:45.526Z,62.30
2018-09-06T22:34:13.945Z,61.70
2018-09-06T22:36:42.342Z,61.90
2018-09-06T22:39:10.819Z,61.90
2018-09-06T22:41:39.204Z,62.00
2018-09-06T22:44:07.661Z,61.90
2018-09-06T22:46:36.050Z,62.00
2018-09-06T22:49:04.457Z,62.20
2018-09-06T22:51:32.911Z,62.50
2018-09-06T22:54:01.270Z,62.80
2018-09-06T22:56:29.692Z,63.10
2018-09-06T22:58:58.043Z,63.20
2018-09-06T23:01:26.423Z,63.20
2018-09-06T23:03:54.902Z,63.40
2018-09-06T23:06:23.519Z,63.30
2018-09-06T23:08:51.901Z,63.50
2018-09-06T23:11:20.281Z,63.50
2018-09-06T23:13:48.651Z,63.90
2018-09-06T23:16:17.032Z,64.00
2018-09-06T23:18:45.409Z,64.20
2018-09-06T23:21:13.919Z,64.30
2018-09-06T23:23:42.326Z,64.60
2018-09-06T23:26:11.419Z,64.80
2018-09-06T23:28:39.880Z,64.70
2018-09-06T23:31:08.438Z,65.00
2018-09-06T23:33:36.854Z,64.90
2018-09-06T23:36:05.270Z,65.00
2018-09-06T23:38:33.777Z,65.40
2018-09-06T23:41:02.158Z,65.10
2018-09-06T23:43:30.604Z,65.00
2018-09-06T23:45:59.636Z,65.10
2018-09-06T23:48:29.188Z,65.30
2018-09-06T23:50:58.034Z,65.30
2018-09-06T23:53:27.347Z,66.30
2018-09-06T23:55:56.027Z,65.60
2018-09-06T23:58:24.503Z,65.70
